Home > Products > Valid Products > TAF

000
FTUS46 KOTX 240814 AAA
TAFSFF
TAF AMD
KSFF 240814Z 2408/2506 23008KT P6SM FEW010 BKN200
     FM241800 19004KT P6SM SCT020 BKN040
     FM250100 09003KT P6SM VCSH SCT040 BKN060=



000
FTUS46 KOTX 240814 AAA
TAFSFF
TAF AMD
KSFF 240814Z 2408/2506 23008KT P6SM FEW010 BKN200
     FM241800 19004KT P6SM SCT020 BKN040
     FM250100 09003KT P6SM VCSH SCT040 BKN060=



000
FTUS46 KOTX 240759 AAA
TAFGEG
TAF AMD
KGEG 240759Z 2408/2506 21012KT P6SM SCT010 BKN060
     FM241800 15006KT P6SM SCT015 BKN040
     FM250100 09007KT P6SM VCSH BKN040 OVC060=



000
FTUS46 KOTX 240756 AAA
TAFCOE
TAF AMD
KCOE 240756Z 2408/2506 20007KT P6SM SCT015 OVC040
     FM241500 13005KT P6SM SCT015 BKN030
     FM241800 16006KT P6SM SCT020 BKN035
     FM250100 06006KT P6SM -RA SCT040 BKN060
      AMD LTD TO CLD AND VIS=



000
FTUS46 KOTX 240524
TAFGEG
TAF
KGEG 240524Z 2406/2506 21012KT P6SM FEW011 SCT070 BKN150
     FM240800 21007KT P6SM BKN012 BKN060
     FM241800 15006KT P6SM SCT015 BKN040
     FM250100 09007KT P6SM VCSH BKN040 OVC060=



000
FTUS46 KOTX 240524
TAFMWH
TAF
KMWH 240524Z 2406/2506 20007KT P6SM SCT150
     FM241000 34004KT P6SM SCT015 SCT100
     FM241600 09005KT P6SM SCT100
     FM242200 09005KT P6SM SCT060 BKN100
     FM250000 03007KT P6SM VCSH SCT040 BKN060=



000
FTUS46 KOTX 240524
TAFSFF
TAF
KSFF 240524Z 2406/2506 23008KT P6SM FEW015 BKN070 BKN150
     FM240800 23004KT P6SM BKN016 BKN070
     FM241800 19004KT P6SM SCT020 BKN040
     FM250100 09003KT P6SM VCSH SCT040 BKN060=



000
FTUS46 KOTX 240524
TAFCOE
TAF
KCOE 240524Z 2406/2506 19007KT P6SM BKN015 OVC025
     FM241500 13005KT P6SM SCT015 BKN030
     FM241800 16006KT P6SM SCT020 BKN035
     FM250100 06006KT P6SM -RA SCT040 BKN060
      AMD LTD TO CLD AND VIS=



000
FTUS46 KOTX 240524
TAFLWS
TAF
KLWS 240524Z 2406/2506 06005KT P6SM SCT060 BKN100
     FM241000 VRB02KT P6SM SCT015 BKN025
     FM241800 07003KT P6SM -RA SCT025 BKN040
     FM250300 08003KT P6SM SCT030 BKN050=



000
FTUS46 KOTX 240524
TAFPUW
TAF
KPUW 240524Z 2406/2506 23008KT P6SM SCT060 BKN150
     FM240900 25004KT P6SM FEW020 OVC100
     FM241200 VRB02KT P6SM SCT015 SCT025 BKN100
     FM241900 12005KT P6SM -RA SCT015 BKN035=



000
FTUS46 KOTX 240524
TAFEAT
TAF
KEAT 240524Z 2406/2506 32009KT P6SM FEW150
     FM241000 30003KT P6SM FEW015 SCT150
     FM242000 14003KT P6SM FEW040 SCT080 BKN120
     FM250100 05004KT P6SM -RA SCT030 BKN050=



000
FTUS46 KOTX 240343 AAA
TAFCOE
TAF AMD
KCOE 240343Z 2404/2424 23009KT P6SM SCT015 BKN025 OVC035
     FM240600 20005KT P6SM BKN015 OVC025
     FM241500 13005KT P6SM SCT015 BKN030
     FM241800 16006KT P6SM SCT020 BKN035
      AMD LTD TO CLD AND VIS=



000
FTUS46 KOTX 240343 AAA
TAFCOE
TAF AMD
KCOE 240343Z 2404/2424 23009KT P6SM SCT015 BKN025 OVC035
     FM240600 20005KT P6SM BKN015 OVC025
     FM241500 13005KT P6SM SCT015 BKN030
     FM241800 16006KT P6SM SCT020 BKN035
      AMD LTD TO CLD AND VIS=



000
FTUS46 KOTX 240111 AAA
TAFPUW
TAF AMD
KPUW 240111Z 2401/2424 23008KT P6SM SCT050 BKN080
     FM240900 25004KT P6SM FEW020 OVC050
     FM241200 VRB02KT P6SM BKN015 OVC025
     FM241900 12005KT P6SM VCSH SCT015 BKN035=



000
FTUS46 KOTX 240111 AAA
TAFLWS
TAF AMD
KLWS 240111Z 2401/2424 26005KT P6SM VCSH SCT040 BKN060 BKN100
     FM240600 25004KT P6SM BKN040 OVC070
     FM241000 VRB02KT P6SM SCT015 BKN025
     FM241800 07003KT P6SM SCT025 BKN040=



000
FTUS46 KOTX 232330
TAFCOE
TAF
KCOE 232330Z 2400/2424 22013G25KT P6SM -SHRA BKN030 BKN040 OVC060
     FM240200 23009KT P6SM SCT040 BKN050 OVC080
     FM241000 21006KT P6SM SCT016 BKN070
     FM241200 20005KT P6SM BKN015 OVC025
     FM241800 16006KT P6SM SCT020 BKN035
      AMD LTD TO CLD AND VIS=



000
FTUS46 KOTX 232330
TAFSFF
TAF
KSFF 232330Z 2400/2424 23010KT P6SM VCSH BKN025 OVC070
     FM240200 23008KT P6SM SCT025 SCT070
     FM241000 23004KT P6SM BKN016 BKN070
     FM241800 21004KT P6SM SCT020 BKN040=



000
FTUS46 KOTX 232330
TAFGEG
TAF
KGEG 232330Z 2400/2424 21015G23KT P6SM VCSH BKN025 OVC060
     FM240100 22015KT P6SM SCT030 BKN050
     FM240600 21008KT P6SM FEW015 SCT070
     FM241000 21006KT P6SM BKN012 BKN060
     FM241800 15006KT P6SM SCT015 BKN040=



000
FTUS46 KOTX 232330
TAFLWS
TAF
KLWS 232330Z 2400/2424 23012G25KT P6SM -TSRA SCT030 BKN040CB OVC060
     FM240200 26005KT P6SM VCSH SCT040 BKN060 BKN100
     FM240600 25004KT P6SM BKN040 OVC070
     FM241000 VRB02KT P6SM SCT015 BKN025
     FM241800 07003KT P6SM SCT025 BKN040=



000
FTUS46 KOTX 232330
TAFMWH
TAF
KMWH 232330Z 2400/2424 24012G20KT P6SM FEW080 BKN150
     FM240300 23008KT P6SM FEW100 SCT150
     FM241000 20004KT P6SM SCT015 SCT100
     FM241600 09005KT P6SM SCT100
     FM242200 09005KT P6SM SCT060 BKN100=



000
FTUS46 KOTX 232330
TAFEAT
TAF
KEAT 232330Z 2400/2424 27011G22KT P6SM VCSH SCT070 BKN100
     FM240200 30010KT P6SM SCT100
     FM240600 30005KT P6SM FEW150
     FM241000 30003KT P6SM FEW015 SCT150
     FM242000 14003KT P6SM SCT080 BKN120=



000
FTUS46 KOTX 232330
TAFPUW
TAF
KPUW 232330Z 2400/2424 24014G22KT P6SM -TSRA BKN035CB OVC050
     FM240200 23008KT P6SM SCT050 BKN080
     FM240900 25004KT P6SM FEW020 OVC050
     FM241200 VRB02KT P6SM BKN015 OVC025
     FM241900 12005KT P6SM VCSH SCT015 BKN035=



000
FTUS46 KOTX 231731
TAFEAT
TAF
KEAT 231731Z 2318/2418 08004KT P6SM VCSH SCT015 BKN060
      WS020/22025KT
     FM232000 29011G22KT P6SM VCSH SCT070 BKN100
      TEMPO 2320/2322 -SHRA BKN050 OVC090
     FM240200 30010KT P6SM SCT050=



000
FTUS46 KOTX 231731
TAFSFF
TAF
KSFF 231731Z 2318/2418 20010KT P6SM -SHRA SCT009 BKN019 OVC045
     FM232200 22015G24KT 6SM -TSRA BKN030 BKN040CB OVC060
     FM240100 23008KT P6SM BKN050
     FM241000 23004KT P6SM SCT016 BKN080=



000
FTUS46 KOTX 231731
TAFCOE
TAF
KCOE 231731Z 2318/2418 18012KT P6SM -SHRA BKN021 BKN040 OVC045
     FM232000 21011KT P6SM -SHRA SCT030 BKN040
     FM232200 22013G25KT P6SM -TSRA BKN030 BKN040CB OVC060
     FM240200 23009KT P6SM SCT040 BKN050 OVC080
     FM241000 21004KT P6SM SCT016 BKN070
      AMD LTD TO CLD AND VIS=



000
FTUS46 KOTX 231731
TAFGEG
TAF
KGEG 231731Z 2318/2418 19014KT P6SM -SHRA BKN019 BKN040 OVC070
     FM232200 21015G23KT 6SM -TSRA BKN025 BKN040CB OVC060
     FM240100 22015KT P6SM BKN050
     FM241000 21009KT P6SM SCT012 BKN080=



000
FTUS46 KOTX 231731
TAFMWH
TAF
KMWH 231731Z 2318/2418 15006KT P6SM -SHRA SCT025 BKN070 OVC100
      WS020/22025KT
     FM232200 22013G24KT P6SM SCT070 BKN120
     FM240300 23008KT P6SM SCT100=



000
FTUS46 KOTX 231731
TAFLWS
TAF
KLWS 231731Z 2318/2418 07006KT P6SM VCSH OVC080 WS020/22025KT
     FM232100 23012G25KT P6SM -TSRA SCT030 BKN040CB OVC060
     FM240200 24005KT P6SM VCSH BKN060 BKN100
     FM240600 25004KT P6SM BKN040 OVC070=



000
FTUS46 KOTX 231731
TAFPUW
TAF
KPUW 231731Z 2318/2418 06003KT P6SM -SHRA SCT025 BKN040 BKN060
      WS020/22025KT
     FM232100 22014KT P6SM VCTS SCT020 BKN040CB OVC060
     FM232200 24022G36KT 6SM -TSRA BR BKN025CB OVC050
     FM240100 23008KT P6SM SCT050 BKN080
     FM240900 25004KT P6SM FEW020 OVC050=



000
FTUS46 KOTX 231455 AAA
TAFEAT
TAF AMD
KEAT 231455Z 2315/2412 06006KT P6SM -RA BKN060 OVC090
     FM231800 08006KT P6SM SCT015 BKN050
     FM231900 29011G22KT P6SM VCSH SCT070 BKN100
      TEMPO 2319/2321 -SHRA BKN050 OVC090
     FM240200 30010KT P6SM SCT050=



000
FTUS46 KOTX 231354 AAA
TAFPUW
TAF AMD
KPUW 231354Z 2314/2412 25007KT P6SM -RA SCT016 BKN040 OVC060
      TEMPO 2314/2317 6SM -RA BKN016 OVC040
     FM231800 22014KT P6SM VCSH SCT040 BKN060
     FM232100 22014KT P6SM VCTS SCT020 BKN040CB OVC060
      TEMPO 2322/2324 24022G36KT 6SM -TSRA BR BKN025CB OVC050
     FM240100 23008KT P6SM SCT050 BKN080
     FM240900 25004KT P6SM FEW020 OVC050=



000
FTUS46 KOTX 231145 CCA
TAFSFF
TAF COR
KSFF 231145Z 2312/2412 00000KT P6SM VCSH BKN070 WS010/23028KT
     FM231400 20008KT P6SM -RA SCT028 OVC040
     FM231800 20010KT P6SM VCSH FEW028 BKN040 OVC070
      TEMPO 2319/2321 -SHRA
     FM232200 22013G19KT P6SM VCTS SCT020 BKN040CB OVC060
      TEMPO 2322/2324 24016G28KT 6SM -TSRA BKN030CB OVC050
     FM240100 23008KT P6SM BKN050
     FM241000 23004KT P6SM SCT016 BKN080=



000
FTUS46 KOTX 231145 CCB
TAFCOE
TAF COR
KCOE 231145Z 2312/2412 16012KT P6SM -RA SCT028 OVC040
     FM231600 19012KT P6SM VCSH BKN020 OVC035
     FM232000 21011KT P6SM -SHRA SCT030 BKN040
     FM232200 22013KT P6SM VCTS SCT020 BKN040CB OVC060
      TEMPO 2322/2324 24016G28KT P6SM -TSRA BKN025CB OVC050
     FM240200 23009KT P6SM SCT040 BKN050 OVC080
     FM241000 21004KT P6SM SCT016 BKN070
      AMD LTD TO CLD AND VIS=



000
FTUS46 KOTX 231144 CCA
TAFEAT
TAF COR
KEAT 231144Z 2312/2412 06006KT P6SM BKN100
     FM231700 08006KT P6SM SCT015 BKN050
     FM231900 29011G22KT P6SM VCSH SCT070 BKN100
      TEMPO 2319/2321 -SHRA BKN050 OVC090
     FM240200 30010KT P6SM SCT050=



000
FTUS46 KOTX 231141 CCA
TAFCOE
TAF COR
KCOE 231141Z 2312/2412 16012KT P6SM -RA SCT028 OVC040 WS010/23028KT
     FM231600 19012KT P6SM VCSH BKN020 OVC035
     FM232000 21011KT P6SM -SHRA SCT030 BKN040
     FM232200 22013KT P6SM VCTS SCT020 BKN040CB OVC060
      TEMPO 2322/2324 24016G28KT P6SM -TSRA BKN025CB OVC050
     FM240200 23009KT P6SM SCT040 BKN050 OVC080
     FM241000 21004KT P6SM SCT016 BKN070
      AMD LTD TO CLD AND VIS=



000
FTUS46 KOTX 231139
TAFMWH
TAF
KMWH 231139Z 2312/2412 28006KT P6SM VCSH OVC100
     FM231900 20011KT P6SM -SHRA SCT025 BKN070
     FM232200 22013G24KT P6SM SCT070 BKN120
     FM240300 23008KT P6SM SCT100=



000
FTUS46 KOTX 231139
TAFEAT
TAF
KEAT 231139Z 2312/2412 06006KT P6SM BKN100
     FM231400 VRB04KT P6SM SCT007 BKN120
     FM231900 28009KT P6SM SCT015 BKN050
     FM232100 29014G22KT P6SM VCSH SCT070 BKN100
     FM240200 30008KT P6SM FEW080=



000
FTUS46 KOTX 231139
TAFCOE
TAF
KCOE 231139Z 2312/2412 16012KT P6SM -RA SCT028 OVC040
     FM231700 19012KT P6SM VCSH BKN020 OVC035
     FM232000 21011KT P6SM -SHRA SCT030 BKN040
     FM232200 22013KT P6SM VCTS SCT020 BKN040CB OVC060
      TEMPO 2322/2324 24016G28KT 6SM -TSRA BKN025CB OVC050
     FM240200 23009KT P6SM SCT040 BKN050 OVC080
     FM241000 21004KT P6SM SCT016 BKN070
      AMD LTD TO CLD AND VIS=



000
FTUS46 KOTX 231139
TAFGEG
TAF
KGEG 231139Z 2312/2412 18008KT P6SM VCSH FEW030 BKN080
     FM231400 19011KT P6SM -RA SCT025 OVC040
     FM231800 19014KT P6SM VCSH FEW028 BKN040 OVC070
      TEMPO 2319/2321 -SHRA
     FM232200 21015G23KT P6SM VCTS SCT020 BKN040CB OVC060
      TEMPO 2322/2324 24018G32KT 6SM -TSRA BKN025CB OVC050
     FM240100 22015KT P6SM BKN050
     FM241000 21009KT P6SM SCT012 BKN080=



000
FTUS46 KOTX 231139
TAFSFF
TAF
KSFF 231139Z 2312/2412 00000KT P6SM VCSH BKN070
     FM231400 20008KT P6SM -RA SCT028 OVC040
     FM231800 20010KT P6SM VCSH FEW028 BKN040 OVC070
      TEMPO 2319/2321 -SHRA
     FM232200 22013G19KT P6SM VCTS SCT020 BKN040CB OVC060
      TEMPO 2322/2324 24016G28KT 6SM -TSRA BKN030CB OVC050
     FM240100 23008KT P6SM BKN050
     FM241000 23004KT P6SM SCT016 BKN080=



000
FTUS46 KOTX 231139
TAFPUW
TAF
KPUW 231139Z 2312/2412 25007KT P6SM -RA SCT028 BKN040 OVC060
     FM231600 17010KT P6SM SCT030 OVC060
     FM232000 22014KT P6SM VCSH SCT040 BKN060
     FM232200 22014KT P6SM VCTS SCT020 BKN040CB OVC060
      TEMPO 2322/2324 24022G36KT 6SM -TSRA BKN025CB OVC050
     FM240100 23008KT P6SM SCT050 BKN080
     FM240900 25004KT P6SM FEW020 OVC050=



000
FTUS46 KOTX 231139
TAFLWS
TAF
KLWS 231139Z 2312/2412 19006KT P6SM VCSH OVC080
     FM232200 23012KT P6SM VCTS SCT030 BKN050CB OVC060
      TEMPO 2322/2324 25016G28KT P6SM -TSRA BKN035CB OVC050
     FM240200 24005KT P6SM VCSH BKN060 BKN100
     FM240600 25004KT P6SM BKN040 OVC070=



000
FTUS46 KOTX 230921 AAA
TAFCOE
TAF AMD
KCOE 230921Z 2309/2406 VRB03KT P6SM -RA SCT025 OVC050 WS015/24032KT
     FM231600 23015G25KT P6SM VCSH BKN020 OVC035
     FM232100 21013KT P6SM -SHRA SCT030 BKN040
     FM240300 23009KT P6SM SCT040 BKN050 OVC080
      AMD LTD TO CLD AND VIS=



000
FTUS46 KOTX 230917 AAA
TAFEAT
TAF AMD
KEAT 230917Z 2309/2406 26004KT P6SM SCT200
     FM231400 VRB04KT P6SM SCT007 BKN120
     FM231900 28009KT P6SM SCT015 BKN050
     FM232100 29014G22KT P6SM VCSH SCT070 BKN100
     FM240200 30008KT P6SM FEW080=



000
FTUS46 KOTX 230520
TAFEAT
TAF
KEAT 230520Z 2306/2406 26004KT P6SM SCT015 BKN060 OVC100
     FM230900 VRB04KT P6SM VCSH FEW007 BKN015 OVC050
     FM231800 28009KT P6SM SCT015 BKN050
     FM232100 29014G22KT P6SM SCT070 BKN100
     FM240200 30008KT P6SM FEW080=



000
FTUS46 KOTX 230520
TAFSFF
TAF
KSFF 230520Z 2306/2406 15009KT P6SM -RA BKN040 OVC070 WS020/23040KT
     FM231100 22010KT P6SM VCSH BKN020 OVC035
     FM232000 22014G20KT P6SM VCSH SCT025 BKN040
     FM240200 23010KT P6SM BKN050=



000
FTUS46 KOTX 230520
TAFGEG
TAF
KGEG 230520Z 2306/2406 16015KT P6SM -RA BKN035 OVC060 WS020/23040KT
     FM231100 19014G20KT P6SM VCSH FEW010 BKN015 OVC030
     FM231900 20018G26KT P6SM VCSH FEW015 SCT030 BKN040
     FM240200 22015KT P6SM BKN050=



000
FTUS46 KOTX 230520
TAFPUW
TAF
KPUW 230520Z 2306/2406 15012KT P6SM -RA SCT030 OVC050 WS020/24035KT
     FM231200 20016KT P6SM -RA BKN035 OVC050
     FM231900 23016G22KT P6SM -SHRA SCT040 BKN060
     FM240200 25008KT P6SM VCSH SCT050 BKN080=



000
FTUS46 KOTX 230520
TAFLWS
TAF
KLWS 230520Z 2306/2406 17010KT P6SM SCT060 OVC080 WS020/24035KT
     FM231500 17012KT P6SM VCSH SCT050 OVC090
     FM232200 25012G18KT P6SM VCSH SCT060 BKN090
     FM240200 24005KT P6SM SCT060 BKN100=



000
FTUS46 KOTX 230520
TAFCOE
TAF
KCOE 230520Z 2306/2406 15006KT P6SM -RA SCT030 OVC050 WS015/24035KT
     FM231000 18007KT 5SM RA BR OVC015 WS015/24035KT
     FM231500 23015G25KT P6SM VCSH BKN020 OVC035
     FM232100 21013KT P6SM -SHRA SCT030 BKN040
     FM240300 23009KT P6SM SCT040 BKN050 OVC080
      AMD LTD TO CLD AND VIS=



000
FTUS46 KOTX 230520
TAFMWH
TAF
KMWH 230520Z 2306/2406 16016KT P6SM -RA SCT060 OVC090
     FM231000 19010KT P6SM VCSH SCT020 BKN030 OVC060
     FM231300 17005KT P6SM SCT010 BKN020 OVC060
     FM231900 22018G26KT P6SM SCT025 BKN070
     FM240200 22011KT P6SM SCT070 SCT120=



000
FTUS46 KOTX 230245 AAA
TAFMWH
TAF AMD
KMWH 230245Z 2303/2324 16014KT P6SM -RA SCT050 OVC070
     FM231000 19010KT P6SM VCSH SCT030 OVC060
     FM231300 17005KT P6SM SCT010 BKN020 OVC060
     FM232000 22015G22KT P6SM SCT025 BKN070=



000
FTUS46 KOTX 230202 AAA
TAFEAT
TAF AMD
KEAT 230202Z 2302/2324 28004KT 5SM -RA BR BKN009 OVC015
     FM230900 30004KT P6SM VCSH FEW007 BKN015 OVC050
     FM231600 31009KT P6SM SCT015 BKN050
     FM232100 29013KT P6SM SCT070 BKN100=



000
FTUS46 KOTX 230202 AAA
TAFEAT
TAF AMD
KEAT 230202Z 2302/2324 28004KT 5SM -RA BR BKN009 OVC015
     FM230900 30004KT P6SM VCSH FEW007 BKN015 OVC050
     FM231600 31009KT P6SM SCT015 BKN050
     FM232100 29013KT P6SM SCT070 BKN100=



000
FTUS46 KOTX 230045 AAA
TAFLWS
TAF AMD
KLWS 230045Z 2301/2324 17015KT P6SM VCSH SCT040 BKN080 OVC100
     FM230300 17012KT P6SM -RA SCT030 OVC050 WS020/24035KT
     FM231500 17012KT P6SM VCSH SCT050 OVC090
     FM232200 25012G18KT P6SM SCT060 BKN090=



000
FTUS46 KOTX 230045 AAA
TAFLWS
TAF AMD
KLWS 230045Z 2301/2324 17015KT P6SM VCSH SCT040 BKN080 OVC100
     FM230300 17012KT P6SM -RA SCT030 OVC050 WS020/24035KT
     FM231500 17012KT P6SM VCSH SCT050 OVC090
     FM232200 25012G18KT P6SM SCT060 BKN090=



000
FTUS46 KOTX 222330
TAFPUW
TAF
KPUW 222330Z 2300/2324 15015KT P6SM VCSH BKN050 OVC080
     FM230300 15012KT 6SM -RA BKN030 OVC050 WS020/24035KT
     FM231200 20016KT P6SM -RA BKN035 OVC050
     FM231900 23016G22KT P6SM -SHRA SCT040 BKN060=



000
FTUS46 KOTX 222330
TAFMWH
TAF
KMWH 222330Z 2300/2324 19010KT P6SM -RA SCT025 OVC050
      TEMPO 2302/2306 5SM RA BR BKN025 OVC040
     FM231000 20010KT P6SM VCSH SCT030 OVC060
     FM231300 17005KT P6SM SCT010 BKN020 OVC060
     FM232000 22015G22KT P6SM SCT025 BKN070=



000
FTUS46 KOTX 222330
TAFSFF
TAF
KSFF 222330Z 2300/2324 19010KT P6SM -RA SCT040 OVC060
     FM230500 18007KT 6SM -RA BR SCT020 OVC035 WS015/23040KT
     FM231400 22012KT P6SM VCSH BKN020 OVC035
     FM232000 22014G20KT P6SM SCT025 BKN040=



000
FTUS46 KOTX 222330
TAFCOE
TAF
KCOE 222330Z 2300/2324 18006KT P6SM -RA SCT030 OVC050
     FM230700 15011KT 6SM -RA BR SCT020 OVC040 WS015/24035KT
     FM231000 18007KT 5SM RA BR OVC015 WS015/24035KT
     FM231500 23015G25KT P6SM VCSH BKN020 OVC035
     FM232100 21013KT P6SM -SHRA SCT030 BKN040
      AMD LTD TO CLD AND VIS=



000
FTUS46 KOTX 222330
TAFEAT
TAF
KEAT 222330Z 2300/2324 28005KT 5SM -RA BR BKN015 OVC025
     FM230800 30007KT P6SM VCSH FEW007 BKN015 OVC050
     FM231600 31009KT P6SM SCT015 BKN050
     FM232100 29013KT P6SM SCT070 BKN100=



000
FTUS46 KOTX 222330
TAFLWS
TAF
KLWS 222330Z 2300/2324 10006KT P6SM VCSH SCT040 BKN080 OVC100
     FM230300 17009KT P6SM -RA SCT030 OVC050 WS020/24035KT
     FM231500 17012KT P6SM VCSH SCT050 OVC090
     FM232200 25012G18KT P6SM SCT060 BKN090=



000
FTUS46 KOTX 222330
TAFGEG
TAF
KGEG 222330Z 2300/2324 19011KT P6SM -RA OVC045
     FM230500 16015G22KT 6SM -RA BR BKN025 OVC040 WS010/23040KT
     FM231300 23014G20KT P6SM VCSH FEW010 SCT015 OVC030
     FM232000 20016G24KT P6SM FEW015 SCT030 BKN040=



000
FTUS46 KOTX 222147 AAB
TAFEAT
TAF AMD
KEAT 222147Z 2222/2318 28004KT P6SM -RA BKN025 OVC040
     FM230200 30005KT 5SM BR BKN015 OVC025
     FM230800 30007KT P6SM VCSH FEW007 BKN015 OVC050
     FM231600 31009KT P6SM SCT015 BKN050=



000
FTUS46 KOTX 222031 AAA
TAFEAT
TAF AMD
KEAT 222031Z 2221/2318 10009KT P6SM -RA OVC040
     FM222300 08004KT 5SM -RA BR BKN025 OVC040
     FM230800 30007KT P6SM VCSH FEW007 BKN015 OVC050
     FM231600 31009KT P6SM SCT015 BKN050=



000
FTUS46 KOTX 222031 AAA
TAFEAT
TAF AMD
KEAT 222031Z 2221/2318 10009KT P6SM -RA OVC040
     FM222300 08004KT 5SM -RA BR BKN025 OVC040
     FM230800 30007KT P6SM VCSH FEW007 BKN015 OVC050
     FM231600 31009KT P6SM SCT015 BKN050=



000
FTUS46 KOTX 221924 AAA
TAFGEG
TAF AMD
KGEG 221924Z 2219/2318 17012KT P6SM SCT060 OVC080
      TEMPO 2219/2222 -SHRA BKN040 OVC080
     FM222200 19012G19KT P6SM -RA SCT040 OVC060
     FM230700 16015G22KT 6SM -RA BR BKN025 OVC040 WS010/23040KT
     FM231300 23018G30KT P6SM VCSH SCT015 OVC030=



000
FTUS46 KOTX 221736
TAFGEG
TAF
KGEG 221736Z 2218/2318 15012KT P6SM SCT060 OVC080
      TEMPO 2218/2222 -SHRA BKN060 OVC080
     FM222200 19012G19KT P6SM -RA SCT040 OVC060
     FM230700 16015G22KT 6SM -RA BR BKN025 OVC040 WS010/23040KT
     FM231300 23018G30KT P6SM VCSH SCT015 OVC030=



000
FTUS46 KOTX 221736
TAFPUW
TAF
KPUW 221736Z 2218/2318 12014KT P6SM VCSH SCT060 BKN080
     FM222000 13015G22KT P6SM BKN050 OVC110
      TEMPO 2222/2302 -SHRA
     FM230200 14010KT P6SM -RA SCT030 BKN050 OVC080
     FM230600 15012KT 6SM -RA BKN030 OVC050 WS020/24035KT
     FM231200 25017G28KT P6SM BKN035 OVC050=



000
FTUS46 KOTX 221736
TAFCOE
TAF
KCOE 221736Z 2218/2318 12005KT P6SM VCSH OVC060
     FM222200 18006KT P6SM -RA SCT030 OVC050
     FM230700 15011KT 6SM -RA BR SCT020 OVC040
     FM231000 18007KT 5SM RA BR OVC015 WS015/24035KT
     FM231500 23015G25KT P6SM VCSH BKN020 OVC035
      AMD LTD TO CLD AND VIS=



000
FTUS46 KOTX 221736
TAFSFF
TAF
KSFF 221736Z 2218/2318 10004KT P6SM VCSH SCT060 OVC080
     FM222200 19010KT P6SM -RA SCT040 OVC080
     FM230700 18007KT 6SM -RA BR SCT020 OVC035 WS015/23040KT
     FM231500 22015KT P6SM SCT030 OVC040=



000
FTUS46 KOTX 221736
TAFEAT
TAF
KEAT 221736Z 2218/2318 10009KT P6SM VCSH OVC040
     FM222000 08004KT 5SM -RA BR BKN025 OVC040
     FM230800 30007KT P6SM VCSH FEW007 BKN015 OVC050
     FM231600 31009KT P6SM SCT015 BKN050=



000
FTUS46 KOTX 221736
TAFMWH
TAF
KMWH 221736Z 2218/2318 15012KT P6SM -SHRA OVC060
     FM222100 19010G18KT P6SM -RA SCT025 OVC050
      TEMPO 2302/2306 5SM RA BR BKN025 OVC040
     FM231000 20010KT P6SM VCSH SCT030 OVC060=



000
FTUS46 KOTX 221736
TAFLWS
TAF
KLWS 221736Z 2218/2318 10009KT P6SM SCT070 OVC120
     FM230000 13006KT P6SM VCSH SCT040 BKN060 OVC080
     FM230600 17009KT P6SM -RA SCT030 OVC050 WS020/24035KT
     FM231500 17012KT P6SM SCT050 OVC090=



000
FTUS46 KOTX 221736
TAFEAT
TAF
KEAT 221736Z 2218/2318 10009KT P6SM VCSH OVC040
     FM222000 08004KT 5SM -RA BR BKN025 OVC040
     FM230800 30007KT P6SM VCSH FEW007 BKN015 OVC050
     FM231600 31009KT P6SM SCT015 BKN050=



000
FTUS46 KOTX 221736
TAFMWH
TAF
KMWH 221736Z 2218/2318 15012KT P6SM -SHRA OVC060
     FM222100 19010G18KT P6SM -RA SCT025 OVC050
      TEMPO 2302/2306 5SM RA BR BKN025 OVC040
     FM231000 20010KT P6SM VCSH SCT030 OVC060=



000
FTUS46 KOTX 221736
TAFGEG
TAF
KGEG 221736Z 2218/2318 15012KT P6SM SCT060 OVC080
      TEMPO 2218/2222 -SHRA BKN060 OVC080
     FM222200 19012G19KT P6SM -RA SCT040 OVC060
     FM230700 16015G22KT 6SM -RA BR BKN025 OVC040 WS010/23040KT
     FM231300 23018G30KT P6SM VCSH SCT015 OVC030=



000
FTUS46 KOTX 221736
TAFLWS
TAF
KLWS 221736Z 2218/2318 10009KT P6SM SCT070 OVC120
     FM230000 13006KT P6SM VCSH SCT040 BKN060 OVC080
     FM230600 17009KT P6SM -RA SCT030 OVC050 WS020/24035KT
     FM231500 17012KT P6SM SCT050 OVC090=



000
FTUS46 KOTX 221736
TAFPUW
TAF
KPUW 221736Z 2218/2318 12014KT P6SM VCSH SCT060 BKN080
     FM222000 13015G22KT P6SM BKN050 OVC110
      TEMPO 2222/2302 -SHRA
     FM230200 14010KT P6SM -RA SCT030 BKN050 OVC080
     FM230600 15012KT 6SM -RA BKN030 OVC050 WS020/24035KT
     FM231200 25017G28KT P6SM BKN035 OVC050=



000
FTUS46 KOTX 221736
TAFCOE
TAF
KCOE 221736Z 2218/2318 12005KT P6SM VCSH OVC060
     FM222200 18006KT P6SM -RA SCT030 OVC050
     FM230700 15011KT 6SM -RA BR SCT020 OVC040
     FM231000 18007KT 5SM RA BR OVC015 WS015/24035KT
     FM231500 23015G25KT P6SM VCSH BKN020 OVC035
      AMD LTD TO CLD AND VIS=



000
FTUS46 KOTX 221736
TAFSFF
TAF
KSFF 221736Z 2218/2318 10004KT P6SM VCSH SCT060 OVC080
     FM222200 19010KT P6SM -RA SCT040 OVC080
     FM230700 18007KT 6SM -RA BR SCT020 OVC035 WS015/23040KT
     FM231500 22015KT P6SM SCT030 OVC040=



000
FTUS46 KOTX 221143 CCA
TAFEAT
TAF COR
KEAT 221143Z 2212/2312 11010KT P6SM VCSH BKN080 OVC100
      TEMPO 2214/2218 -RA SCT040 OVC070
     FM221800 10009KT 6SM -RA BR BKN040 OVC060
     FM230200 08004KT 5SM -RA BR BKN025 OVC040
     FM230800 30007KT P6SM VCSH FEW007 SCT025 OVC050=



000
FTUS46 KOTX 221139
TAFGEG
TAF
KGEG 221139Z 2212/2312 14008KT P6SM FEW060 FEW110 BKN250
     FM221900 17010KT P6SM VCSH SCT050 OVC090
     FM222200 19012G19KT P6SM -RA SCT040 OVC080
     FM230700 16015G22KT 6SM -RA BR SCT020 OVC040=



000
FTUS46 KOTX 221139
TAFEAT
TAF
KEAT 221139Z 2212/2312 11010KT P6SM BKN080 OVC100
     FM221500 13005KT 6SM -RA BR BKN030 OVC050
     FM230200 08004KT 4SM -RA BR BKN025 OVC040=



000
FTUS46 KOTX 221139
TAFLWS
TAF
KLWS 221139Z 2212/2312 13006KT P6SM SCT200
     FM221900 11006KT P6SM SCT070 OVC120
     FM230500 13006KT P6SM VCSH SCT040 BKN060 OVC080
     FM230900 13009KT P6SM -RA SCT030 OVC050=



000
FTUS46 KOTX 221139
TAFPUW
TAF
KPUW 221139Z 2212/2312 09012KT P6SM SCT200
     FM221800 13015G22KT P6SM BKN050 OVC110
     FM230000 14010KT P6SM VCSH BKN040 OVC080
     FM230400 14009KT P6SM -RA SCT030 BKN050 OVC080=



000
FTUS46 KOTX 221139
TAFCOE
TAF
KCOE 221139Z 2212/2312 04004KT P6SM SCT200
     FM222200 18006KT P6SM VCSH SCT050 OVC090
     FM230300 14010KT P6SM SCT040 OVC080
      TEMPO 2303/2307 -RA BKN040
     FM230700 15011KT 6SM -RA BR SCT020 OVC040
      AMD LTD TO CLD AND VIS=



000
FTUS46 KOTX 221139
TAFSFF
TAF
KSFF 221139Z 2212/2312 04004KT P6SM FEW110 BKN200
     FM222000 18006KT P6SM VCSH SCT050 OVC090
     FM222300 19010KT P6SM -RA SCT040 OVC080
     FM230700 18011KT 6SM -RA BR SCT020 OVC040=



000
FTUS46 KOTX 221139
TAFMWH
TAF
KMWH 221139Z 2212/2312 12008KT P6SM VCSH BKN070 OVC090
     FM221600 14010KT P6SM -RA SCT030 BKN040 OVC060
     FM221900 19010G18KT 6SM -RA BR SCT025 OVC050
     FM231000 20010KT P6SM VCSH SCT030 OVC060=



000
FTUS46 KOTX 220527
TAFMWH
TAF
KMWH 220527Z 2206/2306 14008KT P6SM SCT120 BKN150
     FM220900 15012KT P6SM SCT080 BKN100 OVC150
     FM221200 16011KT P6SM VCSH SCT050 BKN080 OVC100
     FM221600 17011KT P6SM -RA SCT030 BKN040 OVC060=



000
FTUS46 KOTX 220527
TAFEAT
TAF
KEAT 220527Z 2206/2306 VRB03KT P6SM VCSH SCT050 BKN070 OVC100
     FM221200 08003KT P6SM -RA SCT030 BKN050 OVC080
     FM221500 13005KT 6SM -RA BR BKN030 OVC050
     FM230200 08004KT 4SM -RA BR BKN025 OVC040=



000
FTUS46 KOTX 220527
TAFCOE
TAF
KCOE 220527Z 2206/2306 15005KT P6SM SCT040 SCT150
     FM221500 11010KT P6SM SCT050 BKN080 OVC100
     FM222200 17008KT P6SM BKN040 OVC060
     FM230500 15010KT P6SM -RA SCT030 BKN040 OVC060
      AMD LTD TO CLD AND VIS=



000
FTUS46 KOTX 220527
TAFPUW
TAF
KPUW 220527Z 2206/2306 09006KT P6SM FEW150
     FM221200 10014KT P6SM SCT100 BKN120 OVC150
     FM221800 14011KT P6SM SCT060 BKN080 OVC100
     FM230400 14009KT P6SM -RA SCT030 BKN050 OVC080=



000
FTUS46 KOTX 220527
TAFLWS
TAF
KLWS 220527Z 2206/2306 12004KT P6SM FEW150
     FM221300 11006KT P6SM SCT100 BKN150
     FM221900 11006KT P6SM BKN080 OVC100
     FM230500 13006KT P6SM VCSH SCT040 BKN060 OVC080=



000
FTUS46 KOTX 220527
TAFSFF
TAF
KSFF 220527Z 2206/2306 VRB03KT P6SM SCT150
     FM221000 13004KT P6SM SCT060 BKN080 OVC100
     FM221600 16005KT P6SM BKN050 OVC080
     FM222000 19008KT P6SM SCT040 BKN060 OVC100
     FM230400 16009KT P6SM -RA SCT030 BKN040 OVC060=



000
FTUS46 KOTX 220527
TAFGEG
TAF
KGEG 220527Z 2206/2306 18009KT P6SM FEW070 SCT150
     FM221000 14008KT P6SM SCT050 BKN070 OVC100
     FM221600 13013KT P6SM BKN050 OVC080
     FM222000 18012KT P6SM SCT040 BKN060 OVC080
     FM230400 16013KT P6SM -RA SCT030 BKN040 OVC060=



000
FTUS46 KOTX 220527
TAFPUW
TAF
KPUW 220527Z 2206/2306 09006KT P6SM FEW150
     FM221200 10014KT P6SM SCT100 BKN120 OVC150
     FM221800 14011KT P6SM SCT060 BKN080 OVC100
     FM230400 14009KT P6SM -RA SCT030 BKN050 OVC080=



000
FTUS46 KOTX 220527
TAFEAT
TAF
KEAT 220527Z 2206/2306 VRB03KT P6SM VCSH SCT050 BKN070 OVC100
     FM221200 08003KT P6SM -RA SCT030 BKN050 OVC080
     FM221500 13005KT 6SM -RA BR BKN030 OVC050
     FM230200 08004KT 4SM -RA BR BKN025 OVC040=



000
FTUS46 KOTX 220527
TAFCOE
TAF
KCOE 220527Z 2206/2306 15005KT P6SM SCT040 SCT150
     FM221500 11010KT P6SM SCT050 BKN080 OVC100
     FM222200 17008KT P6SM BKN040 OVC060
     FM230500 15010KT P6SM -RA SCT030 BKN040 OVC060
      AMD LTD TO CLD AND VIS=



000
FTUS46 KOTX 220527
TAFLWS
TAF
KLWS 220527Z 2206/2306 12004KT P6SM FEW150
     FM221300 11006KT P6SM SCT100 BKN150
     FM221900 11006KT P6SM BKN080 OVC100
     FM230500 13006KT P6SM VCSH SCT040 BKN060 OVC080=



000
FTUS46 KOTX 220527
TAFSFF
TAF
KSFF 220527Z 2206/2306 VRB03KT P6SM SCT150
     FM221000 13004KT P6SM SCT060 BKN080 OVC100
     FM221600 16005KT P6SM BKN050 OVC080
     FM222000 19008KT P6SM SCT040 BKN060 OVC100
     FM230400 16009KT P6SM -RA SCT030 BKN040 OVC060=



000
FTUS46 KOTX 220527
TAFGEG
TAF
KGEG 220527Z 2206/2306 18009KT P6SM FEW070 SCT150
     FM221000 14008KT P6SM SCT050 BKN070 OVC100
     FM221600 13013KT P6SM BKN050 OVC080
     FM222000 18012KT P6SM SCT040 BKN060 OVC080
     FM230400 16013KT P6SM -RA SCT030 BKN040 OVC060=



000
FTUS46 KOTX 220527
TAFMWH
TAF
KMWH 220527Z 2206/2306 14008KT P6SM SCT120 BKN150
     FM220900 15012KT P6SM SCT080 BKN100 OVC150
     FM221200 16011KT P6SM VCSH SCT050 BKN080 OVC100
     FM221600 17011KT P6SM -RA SCT030 BKN040 OVC060=



000
FTUS46 KOTX 212330
TAFGEG
TAF
KGEG 212330Z 2200/2224 22013KT P6SM SCT035 SCT050 BKN100
     FM220400 18009KT P6SM FEW050 SCT150
     FM220900 16008KT P6SM SCT070 BKN100 OVC120
     FM221500 14013KT P6SM BKN080 OVC100
     FM222000 18012KT P6SM VCSH SCT040 BKN060 OVC080=



000
FTUS46 KOTX 212330
TAFCOE
TAF
KCOE 212330Z 2200/2224 22011KT P6SM SCT040 BKN070
     FM220200 19006KT P6SM SCT040 SCT080
     FM220600 15005KT P6SM FEW050 SCT150
     FM221100 10008KT P6SM SCT080 BKN100
     FM221500 11012KT P6SM SCT050 BKN080 OVC100
     FM222200 17008KT P6SM VCSH BKN040 OVC060
      AMD LTD TO CLD AND VIS=



000
FTUS46 KOTX 212330
TAFMWH
TAF
KMWH 212330Z 2200/2224 21012KT P6SM FEW080
     FM220100 18006KT P6SM SCT100
     FM220700 15008KT P6SM SCT120 BKN150 OVC200
     FM220900 15012KT P6SM SCT080 BKN100 OVC150
     FM221600 16011KT P6SM VCSH BKN080 OVC100
     FM221800 17011KT P6SM -RA SCT030 BKN040 OVC060=



000
FTUS46 KOTX 212330
TAFSFF
TAF
KSFF 212330Z 2200/2224 22009KT P6SM SCT040 BKN080
     FM220600 VRB03KT P6SM SCT150
     FM220900 13004KT P6SM SCT100 OVC150
     FM221600 18008KT P6SM BKN080 OVC100
     FM222000 19008KT P6SM VCSH SCT040 BKN060 OVC100=



000
FTUS46 KOTX 212330
TAFPUW
TAF
KPUW 212330Z 2200/2224 25013G21KT P6SM SCT080
     FM220200 16005KT P6SM FEW080
     FM220800 11009KT P6SM FEW120 SCT150
     FM221300 12014KT P6SM SCT100 BKN120 OVC150
     FM221800 14011KT P6SM SCT060 BKN100 OVC120=



000
FTUS46 KOTX 212330
TAFLWS
TAF
KLWS 212330Z 2200/2224 12004KT P6SM FEW060 SCT100
     FM220700 11003KT P6SM FEW100 SCT150
     FM221300 11006KT P6SM SCT100 BKN150
     FM221900 11006KT P6SM BKN080 OVC100=



000
FTUS46 KOTX 212330
TAFEAT
TAF
KEAT 212330Z 2200/2224 VRB04KT P6SM FEW070 SCT120
     FM220500 VRB03KT P6SM VCSH SCT050 BKN070 OVC100
     FM221300 08003KT P6SM -RA SCT030 BKN050 OVC080
     FM221500 10003KT 6SM -RA BR BKN030 OVC050=



000
FTUS46 KOTX 212209 AAA
TAFGEG
TAF AMD
KGEG 212209Z 2122/2218 22013G19KT P6SM SCT035 BKN050
     FM220400 15007KT P6SM FEW040 SCT200
     FM220900 14009KT P6SM SCT100 BKN130 OVC200
     FM221400 14013KT P6SM BKN080 OVC100=



000
FTUS46 KOTX 212209 AAA
TAFGEG
TAF AMD
KGEG 212209Z 2122/2218 22013G19KT P6SM SCT035 BKN050
     FM220400 15007KT P6SM FEW040 SCT200
     FM220900 14009KT P6SM SCT100 BKN130 OVC200
     FM221400 14013KT P6SM BKN080 OVC100=



000
FTUS46 KOTX 212029 AAA
TAFCOE
TAF AMD
KCOE 212029Z 2120/2218 25011KT P6SM BKN035 BKN050
     FM220200 19007KT P6SM SCT030 BKN050
     FM220600 14005KT P6SM FEW050 SCT200
     FM221000 10008KT P6SM SCT100 BKN130 OVC200
     FM221500 11012KT P6SM BKN080 OVC100
      AMD LTD TO CLD AND VIS=



000
FTUS46 KOTX 212028 AAA
TAFSFF
TAF AMD
KSFF 212028Z 2120/2218 22009KT P6SM BKN035
     FM220600 16003KT P6SM SCT150 BKN200
     FM220900 16004KT P6SM SCT100 BKN130 OVC200
     FM221400 17007KT P6SM BKN080 OVC100=



000
FTUS46 KOTX 211752 CCA
TAFGEG
TAF COR
KGEG 211752Z 2118/2218 23012G16KT P6SM OVC010
     FM212100 22014G20KT P6SM BKN030
     FM212300 22013G19KT P6SM BKN035
     FM220400 15007KT P6SM FEW040 SCT200
     FM220900 14009KT P6SM SCT100 BKN130 OVC200
     FM221400 14013KT P6SM BKN080 OVC100=



000
FTUS46 KOTX 211750 CCA
TAFEAT
TAF COR
KEAT 211750Z 2118/2218 00000KT P6SM SCT006
     FM211900 27008KT P6SM FEW025 SCT040
     FM220200 VRB03KT P6SM OVC200
     FM220500 07004KT P6SM SCT100 OVC150
     FM221300 08003KT P6SM -RA BKN050 OVC080
     FM221500 10003KT 6SM -RA BR BKN030 OVC050=



000
FTUS46 KOTX 211742 CCA
TAFMWH
TAF COR
KMWH 211742Z 2118/2218 17005KT P6SM FEW002
     FM211900 21008KT P6SM FEW050
     FM220100 17006KT P6SM SCT200
     FM220700 15007KT P6SM FEW120 SCT150 OVC200
     FM221000 15009KT P6SM BKN100 OVC150
     FM221600 16011KT P6SM VCSH BKN080 OVC100=



000
FTUS46 KOTX 211739
TAFEAT
TAF
KEAT 211739Z 2118/2218 27003KT P6SM OVC006
     FM212000 27009KT P6SM SCT030 BKN200
     FM220400 16006KT P6SM VCSH SCT030 OVC070
     FM221200 VRB03KT 6SM -RA BR BKN025 OVC050=



000
FTUS46 KOTX 211739
TAFGEG
TAF
KGEG 211739Z 2118/2218 21012G16KT P6SM BKN010
     FM212100 22014G20KT P6SM BKN030
     FM212300 22013G19KT P6SM BKN035
     FM220400 15007KT P6SM FEW040 SCT200
     FM220900 14009KT P6SM SCT100 BKN130 OVC200
     FM221400 14013KT P6SM BKN080 OVC100=



000
FTUS46 KOTX 211739
TAFMWH
TAF
KMWH 211739Z 2118/2218 17005KT P6SM FEW002
     FM211900 21008KT P6SM FEW050
     FM220100 17006KT P6SM SCT200
     FM220700 15007KT P6SM FEW120 SCT150 OVC200
     FM221000 15011KT P6SM BKN080 OVC120=



000
FTUS46 KOTX 211739
TAFLWS
TAF
KLWS 211739Z 2118/2218 30003KT P6SM SCT040
     FM212100 28007KT P6SM FEW050
     FM220200 15004KT P6SM SKC
     FM220700 11003KT P6SM FEW150 SCT200
     FM221300 11006KT P6SM SCT100 BKN130 OVC180=



000
FTUS46 KOTX 211739
TAFSFF
TAF
KSFF 211739Z 2118/2218 22009KT P6SM OVC015
     FM212000 22010G16KT P6SM OVC025
     FM212200 22010G16KT P6SM BKN035
     FM220600 16003KT P6SM SCT150 BKN200
     FM220900 16004KT P6SM SCT100 BKN130 OVC200
     FM221400 17007KT P6SM BKN080 OVC100=



000
FTUS46 KOTX 211739
TAFPUW
TAF
KPUW 211739Z 2118/2218 25013G21KT P6SM BKN030
     FM212030 25013G21KT P6SM SCT035 BKN050
     FM220300 13005KT P6SM FEW050
     FM220800 11009KT P6SM FEW150 SCT200
     FM221300 12013KT P6SM SCT100 BKN130 OVC180=



000
FTUS46 KOTX 211739
TAFCOE
TAF
KCOE 211739Z 2118/2218 24010KT P6SM VCSH BKN030 BKN050
      TEMPO 2118/2120 SCT025 BKN040
     FM212200 24011KT P6SM VCSH BKN035 BKN050
     FM220200 19007KT P6SM SCT030 BKN050
     FM220600 14005KT P6SM FEW050 SCT200
     FM221000 10008KT P6SM SCT100 BKN130 OVC200
     FM221500 11012KT P6SM BKN080 OVC100
      AMD LTD TO CLD AND VIS=



000
FTUS46 KOTX 211612 AAB
TAFMWH
TAF AMD
KMWH 211612Z 2116/2212 00000KT 1SM PRFG BKN002
      TEMPO 2116/2117 1/4SM FG VV002
     FM211700 20003KT 6SM BR SCT002
     FM211800 21008KT P6SM SCT100
     FM220900 14009KT P6SM VCSH BKN050 OVC080=



000
FTUS46 KOTX 211612 AAB
TAFMWH
TAF AMD
KMWH 211612Z 2116/2212 00000KT 1SM PRFG BKN002
      TEMPO 2116/2117 1/4SM FG VV002
     FM211700 20003KT 6SM BR SCT002
     FM211800 21008KT P6SM SCT100
     FM220900 14009KT P6SM VCSH BKN050 OVC080=



000
FTUS46 KOTX 211612 AAB
TAFMWH
TAF AMD
KMWH 211612Z 2116/2212 00000KT 1SM PRFG BKN002
      TEMPO 2116/2117 1/4SM FG VV002
     FM211700 20003KT 6SM BR SCT002
     FM211800 21008KT P6SM SCT100
     FM220900 14009KT P6SM VCSH BKN050 OVC080=



000
FTUS46 KOTX 211612 AAB
TAFMWH
TAF AMD
KMWH 211612Z 2116/2212 00000KT 1SM PRFG BKN002
      TEMPO 2116/2117 1/4SM FG VV002
     FM211700 20003KT 6SM BR SCT002
     FM211800 21008KT P6SM SCT100
     FM220900 14009KT P6SM VCSH BKN050 OVC080=



000
FTUS46 KOTX 211537 AAC
TAFEAT
TAF AMD
KEAT 211537Z 2116/2212 00000KT 6SM BCFG SCT003 BKN100
      TEMPO 2116/2117 4SM BR BKN003
     FM211700 27003KT P6SM SCT200
     FM211900 27009KT P6SM SCT040 BKN200
     FM220400 16006KT P6SM VCSH SCT030 OVC070
     FM220700 VRB03KT 6SM -RA BR BKN025 OVC050=



000
FTUS46 KOTX 211537 AAC
TAFEAT
TAF AMD
KEAT 211537Z 2116/2212 00000KT 6SM BCFG SCT003 BKN100
      TEMPO 2116/2117 4SM BR BKN003
     FM211700 27003KT P6SM SCT200
     FM211900 27009KT P6SM SCT040 BKN200
     FM220400 16006KT P6SM VCSH SCT030 OVC070
     FM220700 VRB03KT 6SM -RA BR BKN025 OVC050=



000
FTUS46 KOTX 211537 AAC
TAFEAT
TAF AMD
KEAT 211537Z 2116/2212 00000KT 6SM BCFG SCT003 BKN100
      TEMPO 2116/2117 4SM BR BKN003
     FM211700 27003KT P6SM SCT200
     FM211900 27009KT P6SM SCT040 BKN200
     FM220400 16006KT P6SM VCSH SCT030 OVC070
     FM220700 VRB03KT 6SM -RA BR BKN025 OVC050=



000
FTUS46 KOTX 211537 AAC
TAFEAT
TAF AMD
KEAT 211537Z 2116/2212 00000KT 6SM BCFG SCT003 BKN100
      TEMPO 2116/2117 4SM BR BKN003
     FM211700 27003KT P6SM SCT200
     FM211900 27009KT P6SM SCT040 BKN200
     FM220400 16006KT P6SM VCSH SCT030 OVC070
     FM220700 VRB03KT 6SM -RA BR BKN025 OVC050=



000
FTUS46 KOTX 211522 AAA
TAFMWH
TAF AMD
KMWH 211522Z 2115/2212 00000KT 6SM BR FEW001
     FM211600 19004KT P6SM FEW100
     FM211800 21008KT P6SM SCT100
     FM220900 14009KT P6SM VCSH BKN050 OVC080=



000
FTUS46 KOTX 211522 AAA
TAFMWH
TAF AMD
KMWH 211522Z 2115/2212 00000KT 6SM BR FEW001
     FM211600 19004KT P6SM FEW100
     FM211800 21008KT P6SM SCT100
     FM220900 14009KT P6SM VCSH BKN050 OVC080=



000
FTUS46 KOTX 211522 AAA
TAFMWH
TAF AMD
KMWH 211522Z 2115/2212 00000KT 6SM BR FEW001
     FM211600 19004KT P6SM FEW100
     FM211800 21008KT P6SM SCT100
     FM220900 14009KT P6SM VCSH BKN050 OVC080=



000
FTUS46 KOTX 211522 AAA
TAFMWH
TAF AMD
KMWH 211522Z 2115/2212 00000KT 6SM BR FEW001
     FM211600 19004KT P6SM FEW100
     FM211800 21008KT P6SM SCT100
     FM220900 14009KT P6SM VCSH BKN050 OVC080=



000
FTUS46 KOTX 211510 AAA
TAFCOE
TAF AMD
KCOE 211510Z 2115/2212 23007KT P6SM VCSH BKN025 OVC050
     FM212030 22011KT P6SM VCSH BKN040
     FM220200 19008KT P6SM SCT050 SCT120 SCT200
     FM220900 15005KT P6SM BKN050 OVC120
      AMD LTD TO CLD AND VIS=



000
FTUS46 KOTX 211510 AAA
TAFCOE
TAF AMD
KCOE 211510Z 2115/2212 23007KT P6SM VCSH BKN025 OVC050
     FM212030 22011KT P6SM VCSH BKN040
     FM220200 19008KT P6SM SCT050 SCT120 SCT200
     FM220900 15005KT P6SM BKN050 OVC120
      AMD LTD TO CLD AND VIS=



000
FTUS46 KOTX 211507 AAA
TAFSFF
TAF AMD
KSFF 211507Z 2115/2212 22008KT P6SM OVC015
     FM211800 22009KT P6SM BKN025
     FM212030 22010G16KT P6SM BKN040
     FM220200 VRB03KT P6SM SCT040 BKN200
     FM220900 16004KT P6SM FEW060 BKN130 OVC220=



000
FTUS46 KOTX 211507 AAA
TAFSFF
TAF AMD
KSFF 211507Z 2115/2212 22008KT P6SM OVC015
     FM211800 22009KT P6SM BKN025
     FM212030 22010G16KT P6SM BKN040
     FM220200 VRB03KT P6SM SCT040 BKN200
     FM220900 16004KT P6SM FEW060 BKN130 OVC220=



000
FTUS46 KOTX 211503 AAA
TAFGEG
TAF AMD
KGEG 211503Z 2115/2212 21009KT P6SM BKN008
     FM211600 21010KT P6SM BKN015
     FM211800 21012G16KT P6SM BKN025 BKN040
     FM212100 22014G20KT P6SM BKN040
     FM220200 18007KT P6SM SCT040 BKN200
     FM220900 15007KT P6SM FEW060 BKN130 OVC200=



000
FTUS46 KOTX 211441 AAB
TAFEAT
TAF AMD
KEAT 211441Z 2115/2212 00000KT 6SM BCFG SCT004 BKN100
     FM211700 27003KT P6SM SCT200
     FM211900 27009KT P6SM SCT040 BKN200
     FM220400 16006KT P6SM VCSH SCT030 OVC070
     FM220700 VRB03KT 6SM -RA BR BKN025 OVC050=



000
FTUS46 KOTX 211441 AAB
TAFEAT
TAF AMD
KEAT 211441Z 2115/2212 00000KT 6SM BCFG SCT004 BKN100
     FM211700 27003KT P6SM SCT200
     FM211900 27009KT P6SM SCT040 BKN200
     FM220400 16006KT P6SM VCSH SCT030 OVC070
     FM220700 VRB03KT 6SM -RA BR BKN025 OVC050=



000
FTUS46 KOTX 211327 AAA
TAFEAT
TAF AMD
KEAT 211327Z 2113/2212 00000KT 6SM BCFG SCT004 OVC012
      TEMPO 2113/2116 3SM BR BKN004 OVC009
     FM211900 27009KT P6SM SCT040 BKN200
     FM220400 16006KT P6SM VCSH SCT030 OVC070
     FM220700 VRB03KT 6SM -RA BR BKN025 OVC050=



000
FTUS46 KOTX 211327 AAA
TAFEAT
TAF AMD
KEAT 211327Z 2113/2212 00000KT 6SM BCFG SCT004 OVC012
      TEMPO 2113/2116 3SM BR BKN004 OVC009
     FM211900 27009KT P6SM SCT040 BKN200
     FM220400 16006KT P6SM VCSH SCT030 OVC070
     FM220700 VRB03KT 6SM -RA BR BKN025 OVC050=



000
FTUS46 KOTX 211139
TAFSFF
TAF
KSFF 211139Z 2112/2212 19006KT P6SM FEW013 OVC027
     FM211800 20009KT P6SM SCT025 BKN080
     FM220200 VRB03KT P6SM SCT040 BKN200
     FM220900 16004KT P6SM FEW060 BKN130 OVC220=



000
FTUS46 KOTX 211139
TAFSFF
TAF
KSFF 211139Z 2112/2212 19006KT P6SM FEW013 OVC027
     FM211800 20009KT P6SM SCT025 BKN080
     FM220200 VRB03KT P6SM SCT040 BKN200
     FM220900 16004KT P6SM FEW060 BKN130 OVC220=



000
FTUS46 KOTX 211139
TAFCOE
TAF
KCOE 211139Z 2112/2212 24005KT P6SM VCSH SCT025 OVC060
     FM211800 22009KT P6SM VCSH BKN018 OVC025
     FM220200 19008KT P6SM SCT050 SCT120 SCT200
     FM220900 15005KT P6SM BKN050 OVC120
      AMD LTD TO CLD AND VIS=



000
FTUS46 KOTX 211139
TAFGEG
TAF
KGEG 211139Z 2112/2212 18008KT P6SM FEW009 BKN020 OVC060
      TEMPO 2112/2116 SCT009 OVC015
     FM211700 20012G16KT P6SM BKN025 OVC040
     FM220200 18007KT P6SM SCT040 BKN200
     FM220900 15007KT P6SM FEW060 BKN130 OVC200=



000
FTUS46 KOTX 211139
TAFEAT
TAF
KEAT 211139Z 2112/2212 00000KT 6SM BCFG SCT009 OVC012
     FM211900 27009KT P6SM SCT040 BKN200
     FM220400 16006KT P6SM VCSH SCT030 OVC070
     FM220700 VRB03KT 6SM -RA BR BKN025 OVC050=



000
FTUS46 KOTX 211139
TAFMWH
TAF
KMWH 211139Z 2112/2212 15007KT 4SM BR SCT001
      TEMPO 2112/2116 1SM BR BKN001
     FM211800 21008KT P6SM SCT040 BKN120
     FM220900 14009KT P6SM VCSH BKN050 OVC080=



000
FTUS46 KOTX 211139
TAFSFF
TAF
KSFF 211139Z 2112/2212 19006KT P6SM FEW013 OVC027
     FM211800 20009KT P6SM SCT025 BKN080
     FM220200 VRB03KT P6SM SCT040 BKN200
     FM220900 16004KT P6SM FEW060 BKN130 OVC220=



000
FTUS46 KOTX 211139
TAFEAT
TAF
KEAT 211139Z 2112/2212 00000KT 6SM BCFG SCT009 OVC012
     FM211900 27009KT P6SM SCT040 BKN200
     FM220400 16006KT P6SM VCSH SCT030 OVC070
     FM220700 VRB03KT 6SM -RA BR BKN025 OVC050=



000
FTUS46 KOTX 211139
TAFPUW
TAF
KPUW 211139Z 2112/2212 15004KT P6SM SCT025 OVC035
     FM211900 24013G21KT P6SM VCSH SCT030 OVC050
     FM220300 18005KT P6SM SCT120 SCT200
     FM220800 13008KT P6SM BKN070 OVC180=



000
FTUS46 KOTX 211139
TAFPUW
TAF
KPUW 211139Z 2112/2212 15004KT P6SM SCT025 OVC035
     FM211900 24013G21KT P6SM VCSH SCT030 OVC050
     FM220300 18005KT P6SM SCT120 SCT200
     FM220800 13008KT P6SM BKN070 OVC180=



000
FTUS46 KOTX 211139
TAFLWS
TAF
KLWS 211139Z 2112/2212 06004KT P6SM VCSH SCT035 OVC060
     FM211700 27008KT P6SM SCT040 OVC070
     FM220700 13008KT P6SM BKN080 OVC150=



000
FTUS46 KOTX 211139
TAFLWS
TAF
KLWS 211139Z 2112/2212 06004KT P6SM VCSH SCT035 OVC060
     FM211700 27008KT P6SM SCT040 OVC070
     FM220700 13008KT P6SM BKN080 OVC150=



000
FTUS46 KOTX 211139
TAFGEG
TAF
KGEG 211139Z 2112/2212 18008KT P6SM FEW009 BKN020 OVC060
      TEMPO 2112/2116 SCT009 OVC015
     FM211700 20012G16KT P6SM BKN025 OVC040
     FM220200 18007KT P6SM SCT040 BKN200
     FM220900 15007KT P6SM FEW060 BKN130 OVC200=



000
FTUS46 KOTX 211139
TAFLWS
TAF
KLWS 211139Z 2112/2212 06004KT P6SM VCSH SCT035 OVC060
     FM211700 27008KT P6SM SCT040 OVC070
     FM220700 13008KT P6SM BKN080 OVC150=



000
FTUS46 KOTX 211139
TAFPUW
TAF
KPUW 211139Z 2112/2212 15004KT P6SM SCT025 OVC035
     FM211900 24013G21KT P6SM VCSH SCT030 OVC050
     FM220300 18005KT P6SM SCT120 SCT200
     FM220800 13008KT P6SM BKN070 OVC180=



000
FTUS46 KOTX 211139
TAFCOE
TAF
KCOE 211139Z 2112/2212 24005KT P6SM VCSH SCT025 OVC060
     FM211800 22009KT P6SM VCSH BKN018 OVC025
     FM220200 19008KT P6SM SCT050 SCT120 SCT200
     FM220900 15005KT P6SM BKN050 OVC120
      AMD LTD TO CLD AND VIS=



000
FTUS46 KOTX 211139
TAFCOE
TAF
KCOE 211139Z 2112/2212 24005KT P6SM VCSH SCT025 OVC060
     FM211800 22009KT P6SM VCSH BKN018 OVC025
     FM220200 19008KT P6SM SCT050 SCT120 SCT200
     FM220900 15005KT P6SM BKN050 OVC120
      AMD LTD TO CLD AND VIS=



000
FTUS46 KOTX 211139
TAFMWH
TAF
KMWH 211139Z 2112/2212 15007KT 4SM BR SCT001
      TEMPO 2112/2116 1SM BR BKN001
     FM211800 21008KT P6SM SCT040 BKN120
     FM220900 14009KT P6SM VCSH BKN050 OVC080=



000
FTUS46 KOTX 211139
TAFMWH
TAF
KMWH 211139Z 2112/2212 15007KT 4SM BR SCT001
      TEMPO 2112/2116 1SM BR BKN001
     FM211800 21008KT P6SM SCT040 BKN120
     FM220900 14009KT P6SM VCSH BKN050 OVC080=



000
FTUS46 KOTX 211139
TAFGEG
TAF
KGEG 211139Z 2112/2212 18008KT P6SM FEW009 BKN020 OVC060
      TEMPO 2112/2116 SCT009 OVC015
     FM211700 20012G16KT P6SM BKN025 OVC040
     FM220200 18007KT P6SM SCT040 BKN200
     FM220900 15007KT P6SM FEW060 BKN130 OVC200=



000
FTUS46 KOTX 211139
TAFSFF
TAF
KSFF 211139Z 2112/2212 19006KT P6SM FEW013 OVC027
     FM211800 20009KT P6SM SCT025 BKN080
     FM220200 VRB03KT P6SM SCT040 BKN200
     FM220900 16004KT P6SM FEW060 BKN130 OVC220=



000
FTUS46 KOTX 211139
TAFLWS
TAF
KLWS 211139Z 2112/2212 06004KT P6SM VCSH SCT035 OVC060
     FM211700 27008KT P6SM SCT040 OVC070
     FM220700 13008KT P6SM BKN080 OVC150=



000
FTUS46 KOTX 211139
TAFGEG
TAF
KGEG 211139Z 2112/2212 18008KT P6SM FEW009 BKN020 OVC060
      TEMPO 2112/2116 SCT009 OVC015
     FM211700 20012G16KT P6SM BKN025 OVC040
     FM220200 18007KT P6SM SCT040 BKN200
     FM220900 15007KT P6SM FEW060 BKN130 OVC200=



000
FTUS46 KOTX 211139
TAFMWH
TAF
KMWH 211139Z 2112/2212 15007KT 4SM BR SCT001
      TEMPO 2112/2116 1SM BR BKN001
     FM211800 21008KT P6SM SCT040 BKN120
     FM220900 14009KT P6SM VCSH BKN050 OVC080=



000
FTUS46 KOTX 211139
TAFCOE
TAF
KCOE 211139Z 2112/2212 24005KT P6SM VCSH SCT025 OVC060
     FM211800 22009KT P6SM VCSH BKN018 OVC025
     FM220200 19008KT P6SM SCT050 SCT120 SCT200
     FM220900 15005KT P6SM BKN050 OVC120
      AMD LTD TO CLD AND VIS=



000
FTUS46 KOTX 211139
TAFEAT
TAF
KEAT 211139Z 2112/2212 00000KT 6SM BCFG SCT009 OVC012
     FM211900 27009KT P6SM SCT040 BKN200
     FM220400 16006KT P6SM VCSH SCT030 OVC070
     FM220700 VRB03KT 6SM -RA BR BKN025 OVC050=



000
FTUS46 KOTX 211139
TAFPUW
TAF
KPUW 211139Z 2112/2212 15004KT P6SM SCT025 OVC035
     FM211900 24013G21KT P6SM VCSH SCT030 OVC050
     FM220300 18005KT P6SM SCT120 SCT200
     FM220800 13008KT P6SM BKN070 OVC180=



000
FTUS46 KOTX 211139
TAFEAT
TAF
KEAT 211139Z 2112/2212 00000KT 6SM BCFG SCT009 OVC012
     FM211900 27009KT P6SM SCT040 BKN200
     FM220400 16006KT P6SM VCSH SCT030 OVC070
     FM220700 VRB03KT 6SM -RA BR BKN025 OVC050=



    US Dept of Commerce
    National Oceanic and Atmospheric Administration
    National Weather Service
    1325 East West Highway
    Silver Spring, MD 20910
    Page Author: NWS Internet Services Team
Disclaimer
Information Quality
Credits
Glossary
Privacy Policy
Freedom of Information Act (FOIA)
About Us
Career Opportunities